sensor_id;sensor_type;location;lat;lon;timestamp;pressure;altitude;pressure_sealevel;temperature;humidity
62995;BME280;49086;52.300;4.850;2022-09-09T00:02:36;53380.28;;;-146.41;100.00
62995;BME280;49086;52.300;4.850;2022-09-09T00:05:44;53386.25;;;-146.41;100.00
62995;BME280;49086;52.300;4.850;2022-09-09T00:18:18;53338.41;;;-146.41;100.00
62995;BME280;49086;52.300;4.850;2022-09-09T00:21:11;53380.28;;;-146.41;100.00
62995;BME280;49086;52.300;4.850;2022-09-09T00:23:55;53382.25;;;-146.41;100.00
62995;BME280;49086;52.300;4.850;2022-09-09T00:26:48;53410.16;;;-146.41;100.00
62995;BME280;49086;52.300;4.850;2022-09-09T00:32:30;53398.22;;;-146.41;100.00
62995;BME280;49086;52.300;4.850;2022-09-09T00:35:04;53338.41;;;-146.41;100.00
62995;BME280;49086;52.300;4.850;2022-09-09T00:37:43;53406.19;;;-146.41;100.00
62995;BME280;49086;52.300;4.850;2022-09-09T00:40:39;53408.19;;;-146.41;100.00
62995;BME280;49086;52.300;4.850;2022-09-09T00:43:37;53390.22;;;-146.41;100.00
62995;BME280;49086;52.300;4.850;2022-09-09T00:56:18;53346.38;;;-146.41;100.00
62995;BME280;49086;52.300;4.850;2022-09-09T01:01:43;53398.22;;;-146.41;100.00
62995;BME280;49086;52.300;4.850;2022-09-09T01:04:29;53372.28;;;-146.41;100.00
62995;BME280;49086;52.300;4.850;2022-09-09T01:07:11;53392.22;;;-146.41;100.00
62995;BME280;49086;52.300;4.850;2022-09-09T01:09:52;53362.31;;;-146.41;100.00
62995;BME280;49086;52.300;4.850;2022-09-09T01:12:49;53442.06;;;-146.41;100.00
62995;BME280;49086;52.300;4.850;2022-09-09T01:15:29;53378.28;;;-146.41;100.00
62995;BME280;49086;52.300;4.850;2022-09-09T01:18:29;53364.31;;;-146.41;100.00
62995;BME280;49086;52.300;4.850;2022-09-09T01:24:24;53380.28;;;-146.41;100.00
62995;BME280;49086;52.300;4.850;2022-09-09T01:26:58;53368.31;;;-146.41;100.00
62995;BME280;49086;52.300;4.850;2022-09-09T01:30:20;53348.38;;;-146.41;100.00
62995;BME280;49086;52.300;4.850;2022-09-09T01:32:51;53394.22;;;-146.41;100.00
62995;BME280;49086;52.300;4.850;2022-09-09T01:35:45;53432.09;;;-146.41;100.00
62995;BME280;49086;52.300;4.850;2022-09-09T01:38:24;53388.25;;;-146.41;100.00
62995;BME280;49086;52.300;4.850;2022-09-09T01:41:05;53402.19;;;-146.41;100.00
62995;BME280;49086;52.300;4.850;2022-09-09T01:43:41;53398.22;;;-146.41;100.00
62995;BME280;49086;52.300;4.850;2022-09-09T01:46:16;53382.25;;;-146.41;100.00
62995;BME280;49086;52.300;4.850;2022-09-09T01:49:09;53374.28;;;-146.41;100.00
62995;BME280;49086;52.300;4.850;2022-09-09T01:52:11;53332.44;;;-146.41;100.00
62995;BME280;49086;52.300;4.850;2022-09-09T01:54:44;53376.28;;;-146.41;100.00
62995;BME280;49086;52.300;4.850;2022-09-09T01:57:27;53404.19;;;-146.41;100.00
62995;BME280;49086;52.300;4.850;2022-09-09T02:00:18;53394.22;;;-146.41;100.00
62995;BME280;49086;52.300;4.850;2022-09-09T02:03:24;53422.13;;;-146.41;100.00
62995;BME280;49086;52.300;4.850;2022-09-09T02:06:26;53414.16;;;-146.41;100.00
62995;BME280;49086;52.300;4.850;2022-09-09T02:09:01;53374.28;;;-146.41;100.00
62995;BME280;49086;52.300;4.850;2022-09-09T02:11:30;53412.16;;;-146.41;100.00
62995;BME280;49086;52.300;4.850;2022-09-09T02:14:34;53408.19;;;-146.41;100.00
62995;BME280;49086;52.300;4.850;2022-09-09T02:17:19;53404.19;;;-146.41;100.00
62995;BME280;49086;52.300;4.850;2022-09-09T02:20:12;53382.25;;;-146.41;100.00
62995;BME280;49086;52.300;4.850;2022-09-09T02:23:02;53436.09;;;-146.41;100.00
62995;BME280;49086;52.300;4.850;2022-09-09T02:25:44;53442.06;;;-146.41;100.00
62995;BME280;49086;52.300;4.850;2022-09-09T02:28:14;53440.06;;;-146.41;100.00
62995;BME280;49086;52.300;4.850;2022-09-09T02:30:49;53392.22;;;-146.41;100.00
62995;BME280;49086;52.300;4.850;2022-09-09T02:33:25;53390.22;;;-146.41;100.00
62995;BME280;49086;52.300;4.850;2022-09-09T02:36:31;53428.09;;;-146.41;100.00
62995;BME280;49086;52.300;4.850;2022-09-09T02:39:15;53418.16;;;-146.41;100.00
62995;BME280;49086;52.300;4.850;2022-09-09T02:42:03;53430.09;;;-146.41;100.00
62995;BME280;49086;52.300;4.850;2022-09-09T02:45:03;53398.22;;;-146.41;100.00
62995;BME280;49086;52.300;4.850;2022-09-09T02:47:30;53396.22;;;-146.41;100.00
62995;BME280;49086;52.300;4.850;2022-09-09T02:50:32;53390.22;;;-146.41;100.00
62995;BME280;49086;52.300;4.850;2022-09-09T02:55:52;53402.19;;;-146.41;100.00
62995;BME280;49086;52.300;4.850;2022-09-09T02:58:48;53420.13;;;-146.41;100.00
62995;BME280;49086;52.300;4.850;2022-09-09T03:01:38;53410.16;;;-146.41;100.00
62995;BME280;49086;52.300;4.850;2022-09-09T03:04:45;53454.03;;;-146.41;100.00
62995;BME280;49086;52.300;4.850;2022-09-09T03:07:33;53404.19;;;-146.41;100.00
62995;BME280;49086;52.300;4.850;2022-09-09T03:10:28;53442.06;;;-146.41;100.00
62995;BME280;49086;52.300;4.850;2022-09-09T03:13:08;53414.16;;;-146.41;100.00
62995;BME280;49086;52.300;4.850;2022-09-09T03:15:36;53420.13;;;-146.41;100.00
62995;BME280;49086;52.300;4.850;2022-09-09T03:18:36;53428.09;;;-146.41;100.00
62995;BME280;49086;52.300;4.850;2022-09-09T03:21:29;53404.19;;;-146.41;100.00
62995;BME280;49086;52.300;4.850;2022-09-09T03:23:57;53424.13;;;-146.41;100.00
62995;BME280;49086;52.300;4.850;2022-09-09T03:26:45;53418.16;;;-146.41;100.00
62995;BME280;49086;52.300;4.850;2022-09-09T03:29:26;53400.19;;;-146.41;100.00
62995;BME280;49086;52.300;4.850;2022-09-09T03:31:52;53402.19;;;-146.41;100.00
62995;BME280;49086;52.300;4.850;2022-09-09T03:34:24;53432.09;;;-146.41;100.00
62995;BME280;49086;52.300;4.850;2022-09-09T03:37:10;53426.13;;;-146.41;100.00
62995;BME280;49086;52.300;4.850;2022-09-09T03:39:43;53380.28;;;-146.41;100.00
62995;BME280;49086;52.300;4.850;2022-09-09T03:42:46;53394.22;;;-146.41;100.00
62995;BME280;49086;52.300;4.850;2022-09-09T03:45:16;53436.09;;;-146.41;100.00
62995;BME280;49086;52.300;4.850;2022-09-09T03:48:11;53418.16;;;-146.41;100.00
62995;BME280;49086;52.300;4.850;2022-09-09T03:50:58;53430.09;;;-146.41;100.00
62995;BME280;49086;52.300;4.850;2022-09-09T03:53:33;53440.06;;;-146.41;100.00
62995;BME280;49086;52.300;4.850;2022-09-09T03:56:45;53456.00;;;-146.41;100.00
62995;BME280;49086;52.300;4.850;2022-09-09T03:59:12;53406.19;;;-146.41;100.00
62995;BME280;49086;52.300;4.850;2022-09-09T04:01:53;53432.09;;;-146.41;100.00
62995;BME280;49086;52.300;4.850;2022-09-09T04:04:23;53422.13;;;-146.41;100.00
62995;BME280;49086;52.300;4.850;2022-09-09T04:06:52;53432.09;;;-146.41;100.00
62995;BME280;49086;52.300;4.850;2022-09-09T04:09:23;53406.19;;;-146.41;100.00
62995;BME280;49086;52.300;4.850;2022-09-09T04:12:14;53450.03;;;-146.41;100.00
62995;BME280;49086;52.300;4.850;2022-09-09T04:14:52;53400.19;;;-146.41;100.00
62995;BME280;49086;52.300;4.850;2022-09-09T04:17:23;53424.13;;;-146.41;100.00
62995;BME280;49086;52.300;4.850;2022-09-09T04:20:22;53430.09;;;-146.41;100.00
62995;BME280;49086;52.300;4.850;2022-09-09T04:23:01;53426.13;;;-146.41;100.00
62995;BME280;49086;52.300;4.850;2022-09-09T04:25:54;53442.06;;;-146.41;100.00
62995;BME280;49086;52.300;4.850;2022-09-09T04:28:32;53406.19;;;-146.41;100.00
62995;BME280;49086;52.300;4.850;2022-09-09T04:31:14;53438.06;;;-146.41;100.00
62995;BME280;49086;52.300;4.850;2022-09-09T04:33:43;53424.13;;;-146.41;100.00
62995;BME280;49086;52.300;4.850;2022-09-09T04:36:16;53402.19;;;-146.41;100.00
62995;BME280;49086;52.300;4.850;2022-09-09T04:38:56;53420.13;;;-146.41;100.00
62995;BME280;49086;52.300;4.850;2022-09-09T04:41:27;53440.06;;;-146.41;100.00
62995;BME280;49086;52.300;4.850;2022-09-09T04:46:48;53465.97;;;-146.41;100.00
62995;BME280;49086;52.300;4.850;2022-09-09T04:49:42;53442.06;;;-146.41;100.00
62995;BME280;49086;52.300;4.850;2022-09-09T04:52:29;53426.13;;;-146.41;100.00
62995;BME280;49086;52.300;4.850;2022-09-09T04:54:59;53420.13;;;-146.41;100.00
62995;BME280;49086;52.300;4.850;2022-09-09T04:58:11;53456.00;;;-146.41;100.00
62995;BME280;49086;52.300;4.850;2022-09-09T05:00:42;53390.22;;;-146.41;100.00
62995;BME280;49086;52.300;4.850;2022-09-09T05:03:16;53475.94;;;-146.41;100.00
62995;BME280;49086;52.300;4.850;2022-09-09T05:06:05;53426.13;;;-146.41;100.00
62995;BME280;49086;52.300;4.850;2022-09-09T05:08:44;53438.06;;;-146.41;100.00
62995;BME280;49086;52.300;4.850;2022-09-09T05:11:22;53436.09;;;-146.41;100.00
62995;BME280;49086;52.300;4.850;2022-09-09T05:14:01;53384.25;;;-146.41;100.00
62995;BME280;49086;52.300;4.850;2022-09-09T05:16:28;53446.06;;;-146.41;100.00
62995;BME280;49086;52.300;4.850;2022-09-09T05:19:00;53420.13;;;-146.41;100.00
62995;BME280;49086;52.300;4.850;2022-09-09T05:21:26;53408.19;;;-146.41;100.00
62995;BME280;49086;52.300;4.850;2022-09-09T05:24:01;53442.06;;;-146.41;100.00
62995;BME280;49086;52.300;4.850;2022-09-09T05:26:28;53440.06;;;-146.41;100.00
62995;BME280;49086;52.300;4.850;2022-09-09T05:29:02;53475.94;;;-146.41;100.00
62995;BME280;49086;52.300;4.850;2022-09-09T05:31:34;53400.19;;;-146.41;100.00
62995;BME280;49086;52.300;4.850;2022-09-09T05:34:04;53422.13;;;-146.41;100.00
62995;BME280;49086;52.300;4.850;2022-09-09T05:36:35;53430.09;;;-146.41;100.00
62995;BME280;49086;52.300;4.850;2022-09-09T05:39:06;53438.06;;;-146.41;100.00
62995;BME280;49086;52.300;4.850;2022-09-09T05:41:44;53416.16;;;-146.41;100.00
62995;BME280;49086;52.300;4.850;2022-09-09T05:44:28;53396.22;;;-146.41;100.00
62995;BME280;49086;52.300;4.850;2022-09-09T05:47:03;53438.06;;;-146.41;100.00
62995;BME280;49086;52.300;4.850;2022-09-09T05:49:28;53434.09;;;-146.41;100.00
62995;BME280;49086;52.300;4.850;2022-09-09T05:51:56;53412.16;;;-146.41;100.00
62995;BME280;49086;52.300;4.850;2022-09-09T05:54:30;53438.06;;;-146.41;100.00
62995;BME280;49086;52.300;4.850;2022-09-09T05:56:58;53434.09;;;-146.41;100.00
62995;BME280;49086;52.300;4.850;2022-09-09T05:59:25;53426.13;;;-146.41;100.00
62995;BME280;49086;52.300;4.850;2022-09-09T06:01:52;53408.19;;;-146.41;100.00
62995;BME280;49086;52.300;4.850;2022-09-09T06:04:22;53414.16;;;-146.41;100.00
62995;BME280;49086;52.300;4.850;2022-09-09T06:06:50;53430.09;;;-146.41;100.00
62995;BME280;49086;52.300;4.850;2022-09-09T06:09:21;53418.16;;;-146.41;100.00
62995;BME280;49086;52.300;4.850;2022-09-09T06:11:54;53398.22;;;-146.41;100.00
62995;BME280;49086;52.300;4.850;2022-09-09T06:14:26;53426.13;;;-146.41;100.00
62995;BME280;49086;52.300;4.850;2022-09-09T06:16:52;53406.19;;;-146.41;100.00
62995;BME280;49086;52.300;4.850;2022-09-09T06:19:18;53416.16;;;-146.41;100.00
62995;BME280;49086;52.300;4.850;2022-09-09T06:21:47;53390.22;;;-146.41;100.00
62995;BME280;49086;52.300;4.850;2022-09-09T06:24:15;53390.22;;;-146.41;100.00
62995;BME280;49086;52.300;4.850;2022-09-09T06:26:44;53362.31;;;-146.41;100.00
62995;BME280;49086;52.300;4.850;2022-09-09T06:29:11;53402.19;;;-146.41;100.00
62995;BME280;49086;52.300;4.850;2022-09-09T06:31:40;53366.31;;;-146.41;100.00
62995;BME280;49086;52.300;4.850;2022-09-09T06:34:17;53354.34;;;-146.41;100.00
62995;BME280;49086;52.300;4.850;2022-09-09T06:36:46;53380.28;;;-146.41;100.00
62995;BME280;49086;52.300;4.850;2022-09-09T06:39:14;53366.31;;;-146.41;100.00
62995;BME280;49086;52.300;4.850;2022-09-09T06:41:45;53390.22;;;-146.41;100.00
62995;BME280;49086;52.300;4.850;2022-09-09T06:44:10;53360.34;;;-146.41;100.00
62995;BME280;49086;52.300;4.850;2022-09-09T06:46:43;53336.41;;;-146.41;100.00
62995;BME280;49086;52.300;4.850;2022-09-09T06:49:09;53356.34;;;-146.41;100.00
62995;BME280;49086;52.300;4.850;2022-09-09T06:51:37;53378.28;;;-146.41;100.00
62995;BME280;49086;52.300;4.850;2022-09-09T06:54:10;53348.38;;;-146.41;100.00
62995;BME280;49086;52.300;4.850;2022-09-09T06:56:55;53384.25;;;-146.41;100.00
62995;BME280;49086;52.300;4.850;2022-09-09T06:59:23;53362.31;;;-146.41;100.00
62995;BME280;49086;52.300;4.850;2022-09-09T07:01:49;53390.22;;;-146.41;100.00
62995;BME280;49086;52.300;4.850;2022-09-09T07:04:18;53388.25;;;-146.41;100.00
62995;BME280;49086;52.300;4.850;2022-09-09T07:06:53;53404.19;;;-146.41;100.00
62995;BME280;49086;52.300;4.850;2022-09-09T07:09:23;53356.34;;;-146.41;100.00
62995;BME280;49086;52.300;4.850;2022-09-09T07:11:50;53362.31;;;-146.41;100.00
62995;BME280;49086;52.300;4.850;2022-09-09T07:14:27;53372.28;;;-146.41;100.00
62995;BME280;49086;52.300;4.850;2022-09-09T07:16:53;53374.28;;;-146.41;100.00
62995;BME280;49086;52.300;4.850;2022-09-09T07:19:18;53360.34;;;-146.41;100.00
62995;BME280;49086;52.300;4.850;2022-09-09T07:21:52;53396.22;;;-146.41;100.00
62995;BME280;49086;52.300;4.850;2022-09-09T07:24:18;53390.22;;;-146.41;100.00
62995;BME280;49086;52.300;4.850;2022-09-09T07:26:54;53362.31;;;-146.41;100.00
62995;BME280;49086;52.300;4.850;2022-09-09T07:29:20;53358.34;;;-146.41;100.00
62995;BME280;49086;52.300;4.850;2022-09-09T07:31:48;53388.25;;;-146.41;100.00
62995;BME280;49086;52.300;4.850;2022-09-09T07:34:19;53394.22;;;-146.41;100.00
62995;BME280;49086;52.300;4.850;2022-09-09T07:36:49;53380.28;;;-146.41;100.00
62995;BME280;49086;52.300;4.850;2022-09-09T07:39:25;53400.19;;;-146.41;100.00
62995;BME280;49086;52.300;4.850;2022-09-09T07:41:53;53398.22;;;-146.41;100.00
62995;BME280;49086;52.300;4.850;2022-09-09T07:44:24;53380.28;;;-146.41;100.00
62995;BME280;49086;52.300;4.850;2022-09-09T07:46:52;53398.22;;;-146.41;100.00
62995;BME280;49086;52.300;4.850;2022-09-09T07:49:20;53366.31;;;-146.41;100.00
62995;BME280;49086;52.300;4.850;2022-09-09T07:51:47;53372.28;;;-146.41;100.00
62995;BME280;49086;52.300;4.850;2022-09-09T07:54:17;53348.38;;;-146.41;100.00
62995;BME280;49086;52.300;4.850;2022-09-09T07:56:47;53356.34;;;-146.41;100.00
62995;BME280;49086;52.300;4.850;2022-09-09T07:59:19;53348.38;;;-146.41;100.00
62995;BME280;49086;52.300;4.850;2022-09-09T08:01:49;53388.25;;;-146.41;100.00
62995;BME280;49086;52.300;4.850;2022-09-09T08:04:20;53368.31;;;-146.41;100.00
62995;BME280;49086;52.300;4.850;2022-09-09T08:06:55;53342.41;;;-146.41;100.00
62995;BME280;49086;52.300;4.850;2022-09-09T08:09:44;53352.38;;;-146.41;100.00
62995;BME280;49086;52.300;4.850;2022-09-09T08:12:15;53346.38;;;-146.41;100.00
62995;BME280;49086;52.300;4.850;2022-09-09T08:15:21;53364.31;;;-146.41;100.00
62995;BME280;49086;52.300;4.850;2022-09-09T08:17:52;53352.38;;;-146.41;100.00
62995;BME280;49086;52.300;4.850;2022-09-09T08:20:18;53334.41;;;-146.41;100.00
62995;BME280;49086;52.300;4.850;2022-09-09T08:22:51;53342.41;;;-146.41;100.00
62995;BME280;49086;52.300;4.850;2022-09-09T08:25:45;53336.41;;;-146.41;100.00
62995;BME280;49086;52.300;4.850;2022-09-09T08:28:29;53318.47;;;-146.41;100.00
62995;BME280;49086;52.300;4.850;2022-09-09T08:31:17;53362.31;;;-146.41;100.00
62995;BME280;49086;52.300;4.850;2022-09-09T08:34:05;53356.34;;;-146.41;100.00
62995;BME280;49086;52.300;4.850;2022-09-09T08:36:58;53398.22;;;-146.41;100.00
62995;BME280;49086;52.300;4.850;2022-09-09T08:39:28;53352.38;;;-146.41;100.00
62995;BME280;49086;52.300;4.850;2022-09-09T08:42:31;53362.31;;;-146.41;100.00
62995;BME280;49086;52.300;4.850;2022-09-09T08:45:02;53366.31;;;-146.41;100.00
62995;BME280;49086;52.300;4.850;2022-09-09T08:51:09;53338.41;;;-146.41;100.00
62995;BME280;49086;52.300;4.850;2022-09-09T08:53:43;53342.41;;;-146.41;100.00
62995;BME280;49086;52.300;4.850;2022-09-09T08:56:15;53338.41;;;-146.41;100.00
62995;BME280;49086;52.300;4.850;2022-09-09T08:59:03;53388.25;;;-146.41;100.00
62995;BME280;49086;52.300;4.850;2022-09-09T09:08:33;53326.44;;;-146.41;100.00
62995;BME280;49086;52.300;4.850;2022-09-09T09:11:16;53338.41;;;-146.41;100.00
62995;BME280;49086;52.300;4.850;2022-09-09T09:14:03;53328.44;;;-146.41;99.87
62995;BME280;49086;52.300;4.850;2022-09-09T09:16:52;53344.38;;;-146.41;99.56
62995;BME280;49086;52.300;4.850;2022-09-09T09:19:57;53334.41;;;-146.41;98.81
62995;BME280;49086;52.300;4.850;2022-09-09T09:22:49;53334.41;;;-146.41;98.26
62995;BME280;49086;52.300;4.850;2022-09-09T09:25:30;53374.28;;;-146.41;98.67
62995;BME280;49086;52.300;4.850;2022-09-09T09:28:25;53362.31;;;-146.41;98.02
62995;BME280;49086;52.300;4.850;2022-09-09T09:31:03;53320.47;;;-146.41;97.90
62995;BME280;49086;52.300;4.850;2022-09-09T09:33:49;53338.41;;;-146.41;98.19
62995;BME280;49086;52.300;4.850;2022-09-09T09:43:04;53324.47;;;-146.41;97.25
62995;BME280;49086;52.300;4.850;2022-09-09T09:46:03;53314.50;;;-146.41;97.10
62995;BME280;49086;52.300;4.850;2022-09-09T09:49:30;53334.41;;;-146.41;97.97
62995;BME280;49086;52.300;4.850;2022-09-09T09:52:55;53330.44;;;-146.41;97.62
62995;BME280;49086;52.300;4.850;2022-09-09T09:55:54;53322.47;;;-146.41;97.99
62995;BME280;49086;52.300;4.850;2022-09-09T09:58:34;53346.38;;;-146.41;98.58
62995;BME280;49086;52.300;4.850;2022-09-09T10:01:34;53378.28;;;-146.41;98.69
62995;BME280;49086;52.300;4.850;2022-09-09T10:04:27;53262.66;;;-146.41;98.67
62995;BME280;49086;52.300;4.850;2022-09-09T10:07:25;53254.69;;;-146.41;96.72
62995;BME280;49086;52.300;4.850;2022-09-09T10:14:20;53322.47;;;-146.41;95.18
62995;BME280;49086;52.300;4.850;2022-09-09T10:17:45;53274.63;;;-146.41;94.48
62995;BME280;49086;52.300;4.850;2022-09-09T10:20:52;53296.56;;;-146.41;93.88
62995;BME280;49086;52.300;4.850;2022-09-09T10:30:05;53300.53;;;-146.41;92.54
62995;BME280;49086;52.300;4.850;2022-09-09T10:33:04;53300.53;;;-146.41;92.53
62995;BME280;49086;52.300;4.850;2022-09-09T10:36:16;53316.47;;;-146.41;93.10
62995;BME280;49086;52.300;4.850;2022-09-09T10:39:31;53298.53;;;-146.41;93.10
62995;BME280;49086;52.300;4.850;2022-09-09T10:42:14;53252.69;;;-146.41;91.52
62995;BME280;49086;52.300;4.850;2022-09-09T10:45:02;53266.66;;;-146.41;89.36
62995;BME280;49086;52.300;4.850;2022-09-09T10:54:56;53282.59;;;-146.41;88.44
62995;BME280;49086;52.300;4.850;2022-09-09T10:57:45;53310.50;;;-146.41;90.21
62995;BME280;49086;52.300;4.850;2022-09-09T11:00:44;53300.53;;;-146.41;92.18
62995;BME280;49086;52.300;4.850;2022-09-09T11:03:40;53296.56;;;-146.41;92.78
62995;BME280;49086;52.300;4.850;2022-09-09T11:06:53;53300.53;;;-146.41;92.79
62995;BME280;49086;52.300;4.850;2022-09-09T11:09:58;53306.50;;;-146.41;92.35
62995;BME280;49086;52.300;4.850;2022-09-09T11:12:31;53296.56;;;-146.41;92.70
62995;BME280;49086;52.300;4.850;2022-09-09T11:15:35;53288.56;;;-146.41;93.33
62995;BME280;49086;52.300;4.850;2022-09-09T11:18:36;53302.53;;;-146.41;93.23
62995;BME280;49086;52.300;4.850;2022-09-09T11:21:51;53294.56;;;-146.41;92.81
62995;BME280;49086;52.300;4.850;2022-09-09T11:28:32;53294.56;;;-146.41;91.33
62995;BME280;49086;52.300;4.850;2022-09-09T11:34:39;53290.56;;;-146.41;90.91
62995;BME280;49086;52.300;4.850;2022-09-09T11:41:10;53244.72;;;-146.41;91.14
62995;BME280;49086;52.300;4.850;2022-09-09T11:44:12;53276.63;;;-146.41;91.58
62995;BME280;49086;52.300;4.850;2022-09-09T11:47:02;53296.56;;;-146.41;91.35
62995;BME280;49086;52.300;4.850;2022-09-09T11:52:49;53328.44;;;-146.41;95.50
62995;BME280;49086;52.300;4.850;2022-09-09T11:55:38;53286.59;;;-146.41;96.45
62995;BME280;49086;52.300;4.850;2022-09-09T11:58:22;53296.56;;;-146.41;96.88
62995;BME280;49086;52.300;4.850;2022-09-09T12:00:53;53278.59;;;-146.41;97.16
62995;BME280;49086;52.300;4.850;2022-09-09T12:10:52;53290.56;;;-146.41;96.73
62995;BME280;49086;52.300;4.850;2022-09-09T12:12:42;53288.56;;;-146.41;94.16
62995;BME280;49086;52.300;4.850;2022-09-09T12:15:29;53290.56;;;-146.41;94.07
62995;BME280;49086;52.300;4.850;2022-09-09T12:18:07;53334.41;;;-146.41;94.08
62995;BME280;49086;52.300;4.850;2022-09-09T12:21:06;53274.63;;;-146.41;94.04
62995;BME280;49086;52.300;4.850;2022-09-09T12:23:55;53260.66;;;-146.41;93.64
62995;BME280;49086;52.300;4.850;2022-09-09T12:26:42;53304.53;;;-146.41;92.90
62995;BME280;49086;52.300;4.850;2022-09-09T12:29:37;53298.53;;;-146.41;91.61
62995;BME280;49086;52.300;4.850;2022-09-09T12:32:11;53310.50;;;-146.41;92.65
62995;BME280;49086;52.300;4.850;2022-09-09T12:35:22;53330.44;;;-146.41;93.30
62995;BME280;49086;52.300;4.850;2022-09-09T12:38:01;53334.41;;;-146.41;93.69
62995;BME280;49086;52.300;4.850;2022-09-09T12:40:29;53340.41;;;-146.41;95.45
62995;BME280;49086;52.300;4.850;2022-09-09T12:42:57;53312.50;;;-146.41;97.04
62995;BME280;49086;52.300;4.850;2022-09-09T12:45:29;53284.59;;;-146.41;97.59
62995;BME280;49086;52.300;4.850;2022-09-09T12:48:06;53286.59;;;-146.41;96.98
62995;BME280;49086;52.300;4.850;2022-09-09T12:50:50;53312.50;;;-146.41;96.41
62995;BME280;49086;52.300;4.850;2022-09-09T12:53:41;53354.34;;;-146.41;96.10
62995;BME280;49086;52.300;4.850;2022-09-09T12:56:09;53338.41;;;-146.41;96.67
62995;BME280;49086;52.300;4.850;2022-09-09T12:58:48;53322.47;;;-146.41;97.69
62995;BME280;49086;52.300;4.850;2022-09-09T13:01:31;53324.47;;;-146.41;98.99
62995;BME280;49086;52.300;4.850;2022-09-09T13:04:01;53298.53;;;-146.41;99.78
62995;BME280;49086;52.300;4.850;2022-09-09T13:06:32;53318.47;;;-146.41;100.00
62995;BME280;49086;52.300;4.850;2022-09-09T13:09:22;53298.53;;;-146.41;100.00
62995;BME280;49086;52.300;4.850;2022-09-09T13:11:59;53314.50;;;-146.41;100.00
62995;BME280;49086;52.300;4.850;2022-09-09T13:15:14;53298.53;;;-146.41;100.00
62995;BME280;49086;52.300;4.850;2022-09-09T13:18:10;53310.50;;;-146.41;100.00
62995;BME280;49086;52.300;4.850;2022-09-09T13:20:48;53298.53;;;-146.41;100.00
62995;BME280;49086;52.300;4.850;2022-09-09T13:23:28;53290.56;;;-146.41;100.00
62995;BME280;49086;52.300;4.850;2022-09-09T13:26:26;53310.50;;;-146.41;100.00
62995;BME280;49086;52.300;4.850;2022-09-09T13:28:55;53270.63;;;-146.41;100.00
62995;BME280;49086;52.300;4.850;2022-09-09T13:31:36;53294.56;;;-146.41;100.00
62995;BME280;49086;52.300;4.850;2022-09-09T13:34:58;53334.41;;;-146.41;100.00
62995;BME280;49086;52.300;4.850;2022-09-09T13:37:45;53302.53;;;-146.41;100.00
62995;BME280;49086;52.300;4.850;2022-09-09T13:40:37;53308.50;;;-146.41;99.67
62995;BME280;49086;52.300;4.850;2022-09-09T13:43:14;53306.50;;;-146.41;99.47
62995;BME280;49086;52.300;4.850;2022-09-09T13:51:45;53312.50;;;-146.41;98.04
62995;BME280;49086;52.300;4.850;2022-09-09T13:54:15;53304.53;;;-146.41;97.64
62995;BME280;49086;52.300;4.850;2022-09-09T13:56:47;53350.38;;;-146.41;98.62
62995;BME280;49086;52.300;4.850;2022-09-09T13:59:19;53306.50;;;-146.41;98.96
62995;BME280;49086;52.300;4.850;2022-09-09T14:01:47;53316.47;;;-146.41;98.18
62995;BME280;49086;52.300;4.850;2022-09-09T14:04:21;53316.47;;;-146.41;97.46
62995;BME280;49086;52.300;4.850;2022-09-09T14:06:48;53276.63;;;-146.41;97.62
62995;BME280;49086;52.300;4.850;2022-09-09T14:09:15;53298.53;;;-146.41;97.57
62995;BME280;49086;52.300;4.850;2022-09-09T14:11:43;53274.63;;;-146.41;96.93
62995;BME280;49086;52.300;4.850;2022-09-09T14:14:14;53246.72;;;-146.41;95.97
62995;BME280;49086;52.300;4.850;2022-09-09T14:16:41;53262.66;;;-146.41;94.79
62995;BME280;49086;52.300;4.850;2022-09-09T14:19:16;53260.66;;;-146.41;93.63
62995;BME280;49086;52.300;4.850;2022-09-09T14:21:53;53238.75;;;-146.41;90.44
62995;BME280;49086;52.300;4.850;2022-09-09T14:24:21;53228.78;;;-146.41;90.60
62995;BME280;49086;52.300;4.850;2022-09-09T14:26:46;53250.69;;;-146.41;90.54
62995;BME280;49086;52.300;4.850;2022-09-09T14:29:14;53232.75;;;-146.41;90.09
62995;BME280;49086;52.300;4.850;2022-09-09T14:31:48;53298.53;;;-146.41;91.05
62995;BME280;49086;52.300;4.850;2022-09-09T14:34:14;53294.56;;;-146.41;92.40
62995;BME280;49086;52.300;4.850;2022-09-09T14:36:40;53252.69;;;-146.41;92.84
62995;BME280;49086;52.300;4.850;2022-09-09T14:39:12;53304.53;;;-146.41;93.68
62995;BME280;49086;52.300;4.850;2022-09-09T14:41:39;53336.41;;;-146.41;93.41
62995;BME280;49086;52.300;4.850;2022-09-09T14:44:05;53346.38;;;-146.41;93.53
62995;BME280;49086;52.300;4.850;2022-09-09T14:46:53;53320.47;;;-146.41;94.05
62995;BME280;49086;52.300;4.850;2022-09-09T14:49:27;53290.56;;;-146.41;93.26
62995;BME280;49086;52.300;4.850;2022-09-09T14:52:05;53326.44;;;-146.41;93.51
62995;BME280;49086;52.300;4.850;2022-09-09T14:54:38;53326.44;;;-146.41;94.27
62995;BME280;49086;52.300;4.850;2022-09-09T14:57:08;53324.47;;;-146.41;94.56
62995;BME280;49086;52.300;4.850;2022-09-09T14:59:38;53312.50;;;-146.41;94.83
62995;BME280;49086;52.300;4.850;2022-09-09T15:02:05;53300.53;;;-146.41;95.88
62995;BME280;49086;52.300;4.850;2022-09-09T15:04:58;53338.41;;;-146.41;96.15
62995;BME280;49086;52.300;4.850;2022-09-09T15:07:31;53350.38;;;-146.41;97.74
62995;BME280;49086;52.300;4.850;2022-09-09T15:10:09;53326.44;;;-146.41;98.26
62995;BME280;49086;52.300;4.850;2022-09-09T15:12:41;53334.41;;;-146.41;98.48
62995;BME280;49086;52.300;4.850;2022-09-09T15:15:11;53332.44;;;-146.41;99.42
62995;BME280;49086;52.300;4.850;2022-09-09T15:17:40;53354.34;;;-146.41;99.86
62995;BME280;49086;52.300;4.850;2022-09-09T15:20:44;53346.38;;;-146.41;100.00